Time;durP1;ratioP1;P1;durP2;ratioP2;P2;SDS_P1;SDS_P2;PMS_P1;PMS_P2;Temp;Humidity;BMP_temperature;BMP_pressure;BME280_temperature;BME280_humidity;BME280_pressure;Samples;Min_cycle;Max_cycle;Signal;HPM_P1;HPM_P2
2022/05/06 00:02:07;;;;;;;64.25;50.88;;;19.80;56.40;;;;;;4946309;28;95156;-73
2022/05/06 00:04:33;;;;;;;65.00;50.97;;;19.70;56.30;;;;;;4936055;28;97046;-73
2022/05/06 00:06:59;;;;;;;65.65;51.35;;;19.80;56.30;;;;;;4942739;28;96153;-73
2022/05/06 00:09:24;;;;;;;65.00;51.05;;;19.70;56.30;;;;;;4946179;28;96414;-73
2022/05/06 00:11:51;;;;;;;64.15;50.58;;;19.80;56.40;;;;;;4951403;28;96607;-73
2022/05/06 00:14:18;;;;;;;64.63;51.30;;;19.70;56.20;;;;;;4943166;28;100933;-73
2022/05/06 00:16:44;;;;;;;65.10;51.92;;;19.70;56.20;;;;;;4950642;28;94642;-73
2022/05/06 00:19:09;;;;;;;65.65;50.95;;;19.70;56.20;;;;;;4949885;28;99454;-73
2022/05/06 00:21:35;;;;;;;63.58;51.10;;;19.70;56.30;;;;;;4948051;28;95074;-74
2022/05/06 00:24:04;;;;;;;64.57;51.13;;;19.70;56.40;;;;;;4939855;28;98260;-73
2022/05/06 00:26:30;;;;;;;64.75;51.58;;;19.70;56.20;;;;;;4950434;28;94756;-73
2022/05/06 00:28:56;;;;;;;65.07;50.80;;;19.60;56.30;;;;;;4940497;28;99056;-74
2022/05/06 00:31:21;;;;;;;65.32;51.45;;;19.70;56.50;;;;;;4943814;28;95995;-73
2022/05/06 00:33:48;;;;;;;65.38;51.42;;;19.60;56.50;;;;;;4933735;28;95688;-75
2022/05/06 00:36:14;;;;;;;63.67;50.97;;;19.60;56.50;;;;;;4947769;28;97162;-73
2022/05/06 00:38:42;;;;;;;65.97;51.25;;;19.60;56.40;;;;;;4949455;28;97217;-72
2022/05/06 00:41:08;;;;;;;64.15;51.10;;;19.60;56.40;;;;;;4944762;28;95954;-73
2022/05/06 00:43:37;;;;;;;64.43;50.95;;;19.60;56.40;;;;;;4947644;28;97247;-73
2022/05/06 00:46:10;;;;;;;65.30;51.05;;;19.60;56.40;;;;;;4954188;28;94688;-73
2022/05/06 00:48:36;;;;;;;63.42;50.88;;;19.60;56.40;;;;;;4962408;28;102733;-73
2022/05/06 00:51:04;;;;;;;64.82;51.15;;;19.60;56.30;;;;;;4947678;28;99564;-73
2022/05/06 00:53:31;;;;;;;64.45;50.65;;;19.60;56.30;;;;;;4953568;28;96233;-73
2022/05/06 00:55:56;;;;;;;63.83;50.72;;;19.60;56.30;;;;;;4952034;28;95467;-73
2022/05/06 00:58:29;;;;;;;64.20;51.15;;;19.60;56.40;;;;;;4950619;28;97001;-74
2022/05/06 01:00:54;;;;;;;64.50;50.72;;;19.50;56.50;;;;;;4959228;28;95884;-73
2022/05/06 01:03:20;;;;;;;66.18;51.35;;;19.50;56.60;;;;;;4948351;28;94946;-73
2022/05/06 01:05:47;;;;;;;63.90;51.03;;;19.50;56.50;;;;;;4943489;28;95604;-73
2022/05/06 01:08:13;;;;;;;64.68;51.20;;;19.50;56.50;;;;;;4950589;28;95776;-73
2022/05/06 01:10:41;;;;;;;63.65;51.03;;;19.50;56.60;;;;;;4954041;28;95116;-73
2022/05/06 01:13:07;;;;;;;64.25;51.25;;;19.50;56.50;;;;;;4954872;28;97704;-74
2022/05/06 01:15:32;;;;;;;64.97;51.22;;;19.50;56.40;;;;;;4960980;28;95367;-74
2022/05/06 01:17:58;;;;;;;65.32;51.13;;;19.50;56.40;;;;;;4957697;28;96500;-73
2022/05/06 01:20:25;;;;;;;64.38;51.15;;;19.50;56.30;;;;;;4951366;28;98124;-73
2022/05/06 01:22:57;;;;;;;63.75;50.47;;;19.40;56.40;;;;;;4954849;28;97977;-74
2022/05/06 01:25:23;;;;;;;64.32;51.13;;;19.40;56.50;;;;;;4951223;28;96529;-74
2022/05/06 01:27:55;;;;;;;65.10;51.08;;;19.40;56.50;;;;;;4947833;28;95598;-72
2022/05/06 01:30:31;;;;;;;64.05;50.88;;;19.40;56.60;;;;;;4952474;28;95007;-73
2022/05/06 01:33:00;;;;;;;63.22;50.70;;;19.40;56.50;;;;;;4950669;28;95337;-73
2022/05/06 01:35:28;;;;;;;63.78;50.97;;;19.40;56.60;;;;;;4946224;28;94837;-73
2022/05/06 01:37:59;;;;;;;64.43;51.33;;;19.40;56.50;;;;;;4944686;28;96193;-73
2022/05/06 01:40:27;;;;;;;64.53;50.95;;;19.40;56.40;;;;;;4960200;28;96947;-73
2022/05/06 01:42:57;;;;;;;63.63;50.85;;;19.40;56.50;;;;;;4947530;28;98122;-73
2022/05/06 01:45:24;;;;;;;64.20;51.13;;;19.40;56.60;;;;;;4960102;28;95659;-73
2022/05/06 01:47:52;;;;;;;64.00;51.28;;;19.40;56.50;;;;;;4940429;28;95426;-73
2022/05/06 01:50:20;;;;;;;64.97;51.47;;;19.40;56.50;;;;;;4944408;28;95658;-73
2022/05/06 01:52:50;;;;;;;64.32;50.95;;;19.40;56.40;;;;;;4946155;28;95635;-73
2022/05/06 01:55:17;;;;;;;64.07;50.92;;;19.30;56.40;;;;;;4939744;28;95182;-73
2022/05/06 01:57:43;;;;;;;63.65;51.15;;;19.30;56.50;;;;;;4945912;28;95170;-72
2022/05/06 02:00:09;;;;;;;64.22;50.95;;;19.30;56.60;;;;;;4943932;28;94678;-73
2022/05/06 02:02:35;;;;;;;64.47;51.30;;;19.30;56.60;;;;;;4947813;28;95271;-73
2022/05/06 02:05:19;;;;;;;64.35;51.03;;;19.30;56.60;;;;;;4928786;28;98565;-73
2022/05/06 02:07:52;;;;;;;63.78;50.78;;;19.20;56.50;;;;;;4941849;28;97358;-74
2022/05/06 02:10:20;;;;;;;64.22;50.92;;;19.20;56.50;;;;;;4946434;28;97608;-73
2022/05/06 02:12:46;;;;;;;63.33;50.88;;;19.20;56.50;;;;;;4952916;28;95717;-74
2022/05/06 02:15:14;;;;;;;63.70;51.15;;;19.20;56.60;;;;;;4943498;28;101442;-74
2022/05/06 02:17:40;;;;;;;64.55;51.22;;;19.20;56.60;;;;;;4947150;28;98127;-73
2022/05/06 02:20:08;;;;;;;62.72;50.65;;;19.20;56.60;;;;;;4950597;28;97021;-73
2022/05/06 02:22:35;;;;;;;63.72;50.88;;;19.20;56.50;;;;;;4950408;28;95223;-73
2022/05/06 02:25:02;;;;;;;63.72;51.03;;;19.20;56.50;;;;;;4944050;28;94369;-73
2022/05/06 02:27:28;;;;;;;63.30;50.90;;;19.20;56.60;;;;;;4949923;28;95760;-73
2022/05/06 02:35:21;;;;;;;63.25;50.83;;;19.20;56.60;;;;;;4930470;28;96268;-73
2022/05/06 02:37:47;;;;;;;63.90;51.00;;;19.20;56.70;;;;;;4948208;28;95235;-73
2022/05/06 02:40:13;;;;;;;63.97;50.80;;;19.10;56.60;;;;;;4937614;28;97808;-73
2022/05/06 02:42:39;;;;;;;64.40;51.15;;;19.20;56.50;;;;;;4944138;28;97384;-73
2022/05/06 02:45:05;;;;;;;63.10;50.90;;;19.20;56.60;;;;;;4944954;28;96352;-73
2022/05/06 02:47:31;;;;;;;63.28;50.83;;;19.10;56.50;;;;;;4943529;28;96498;-73
2022/05/06 02:49:56;;;;;;;63.58;50.92;;;19.10;56.50;;;;;;4943195;28;96183;-72
2022/05/06 02:52:23;;;;;;;63.65;50.85;;;19.10;56.40;;;;;;4945504;28;95532;-74
2022/05/06 02:54:49;;;;;;;64.30;51.25;;;19.10;56.60;;;;;;4944546;28;95423;-73
2022/05/06 02:57:15;;;;;;;63.22;50.88;;;19.10;56.60;;;;;;4942132;28;99489;-73
2022/05/06 02:59:41;;;;;;;63.85;51.35;;;19.10;56.60;;;;;;4942091;28;97326;-73
2022/05/06 03:02:07;;;;;;;63.83;51.13;;;19.10;56.60;;;;;;4947082;28;96082;-73
2022/05/06 03:04:33;;;;;;;63.97;51.05;;;19.10;56.50;;;;;;4935564;28;95465;-72
2022/05/06 03:06:59;;;;;;;63.08;50.72;;;19.10;56.50;;;;;;4937353;28;98756;-73
2022/05/06 03:09:25;;;;;;;63.38;50.90;;;19.00;56.50;;;;;;4945773;28;95545;-74
2022/05/06 03:11:51;;;;;;;63.92;51.03;;;19.10;56.50;;;;;;4941981;28;95210;-73
2022/05/06 03:14:17;;;;;;;62.85;50.90;;;19.10;56.60;;;;;;4944894;28;93922;-73
2022/05/06 03:16:43;;;;;;;63.13;50.85;;;19.00;56.50;;;;;;4948107;28;95327;-74
2022/05/06 03:19:09;;;;;;;64.00;51.10;;;19.00;56.60;;;;;;4950161;28;96922;-73
2022/05/06 03:21:35;;;;;;;62.67;50.95;;;19.00;56.50;;;;;;4944702;28;101192;-72
2022/05/06 03:24:01;;;;;;;62.95;50.83;;;19.00;56.50;;;;;;4950830;28;95127;-73
2022/05/06 03:26:27;;;;;;;63.53;50.63;;;19.00;56.50;;;;;;4944498;28;95022;-72
2022/05/06 03:28:54;;;;;;;62.55;50.55;;;19.00;56.50;;;;;;4952731;28;95457;-73
2022/05/06 03:31:20;;;;;;;63.05;50.78;;;19.00;56.50;;;;;;4942446;28;95779;-73
2022/05/06 03:33:47;;;;;;;62.83;50.65;;;19.00;56.60;;;;;;4947220;28;95125;-73
2022/05/06 03:36:13;;;;;;;63.47;50.67;;;19.00;56.50;;;;;;4961188;28;97376;-73
2022/05/06 03:38:38;;;;;;;63.72;50.85;;;19.00;56.50;;;;;;4936638;28;96208;-74
2022/05/06 03:41:04;;;;;;;63.40;50.58;;;19.00;56.50;;;;;;4919258;28;95797;-73
2022/05/06 03:43:29;;;;;;;63.60;51.53;;;18.90;56.50;;;;;;4941669;28;95093;-73
2022/05/06 03:45:55;;;;;;;63.33;50.72;;;19.00;56.60;;;;;;4936539;28;99134;-72
2022/05/06 03:48:24;;;;;;;64.00;50.95;;;18.90;56.50;;;;;;4938348;28;99236;-73
2022/05/06 03:53:38;;;;;;;63.33;50.67;;;18.90;56.50;;;;;;4955326;28;97734;-72
2022/05/06 03:56:05;;;;;;;64.30;51.00;;;18.90;56.50;;;;;;4944032;28;96494;-73
2022/05/06 03:58:32;;;;;;;63.55;50.85;;;18.90;56.50;;;;;;4944829;28;95069;-73
2022/05/06 04:00:58;;;;;;;64.10;51.05;;;18.90;56.60;;;;;;4941152;28;100655;-73
2022/05/06 04:03:23;;;;;;;64.13;51.30;;;18.90;56.50;;;;;;4942400;28;96541;-73
2022/05/06 04:05:49;;;;;;;63.85;50.85;;;18.90;56.50;;;;;;4934955;28;97340;-72
2022/05/06 04:08:15;;;;;;;63.60;51.08;;;18.90;56.50;;;;;;4937684;28;95209;-73
2022/05/06 04:10:40;;;;;;;63.03;50.78;;;18.90;56.50;;;;;;4936976;28;98936;-73
2022/05/06 04:13:06;;;;;;;63.45;51.13;;;18.90;56.40;;;;;;4940613;28;95513;-73
2022/05/06 04:15:34;;;;;;;63.53;50.78;;;18.90;56.40;;;;;;4938221;28;95337;-73
2022/05/06 04:18:01;;;;;;;64.57;51.38;;;18.90;56.40;;;;;;4942654;28;97793;-72
2022/05/06 04:23:30;;;;;;;63.72;51.15;;;18.90;56.40;;;;;;4944622;28;97940;-73
2022/05/06 04:26:00;;;;;;;62.88;50.88;;;18.80;56.20;;;;;;4938727;28;96016;-73
2022/05/06 04:28:27;;;;;;;65.07;51.33;;;18.80;56.40;;;;;;4942741;28;94441;-77
2022/05/06 04:30:53;;;;;;;63.92;51.22;;;18.80;56.30;;;;;;4941785;28;95479;-74
2022/05/06 04:33:20;;;;;;;63.53;51.53;;;18.80;56.30;;;;;;4942490;28;95065;-73
2022/05/06 04:35:46;;;;;;;63.28;51.28;;;18.80;56.20;;;;;;4926695;28;96122;-73
2022/05/06 04:38:12;;;;;;;63.97;51.40;;;18.80;56.30;;;;;;4931923;28;97076;-73
2022/05/06 04:40:38;;;;;;;65.22;51.38;;;18.80;56.30;;;;;;4938666;28;97629;-73
2022/05/06 04:43:04;;;;;;;63.50;51.17;;;18.80;56.40;;;;;;4947473;28;98095;-73
2022/05/06 04:45:30;;;;;;;63.72;51.38;;;18.80;56.30;;;;;;4949657;28;97502;-73
2022/05/06 04:47:56;;;;;;;63.50;51.13;;;18.80;56.40;;;;;;4941903;28;95776;-73
2022/05/06 04:50:22;;;;;;;63.85;51.17;;;18.80;56.30;;;;;;4947005;28;98411;-74
2022/05/06 04:52:49;;;;;;;67.10;51.65;;;18.80;56.40;;;;;;4945470;28;94295;-73
2022/05/06 04:55:15;;;;;;;67.85;51.83;;;18.80;56.20;;;;;;4936854;28;97275;-72
2022/05/06 04:57:41;;;;;;;64.88;52.03;;;18.80;56.40;;;;;;4942362;28;95183;-74
2022/05/06 05:00:07;;;;;;;68.50;54.38;;;18.80;56.60;;;;;;4937672;28;96505;-73
2022/05/06 05:02:33;;;;;;;69.05;52.85;;;18.90;57.00;;;;;;4938953;28;95097;-76
2022/05/06 05:04:59;;;;;;;66.90;53.42;;;19.00;56.90;;;;;;4934480;28;100999;-75
2022/05/06 05:07:25;;;;;;;69.68;52.97;;;19.00;56.70;;;;;;4940774;28;96379;-74
2022/05/06 05:09:51;;;;;;;65.72;52.97;;;19.10;57.20;;;;;;4939242;28;95903;-75
2022/05/06 05:12:17;;;;;;;67.93;52.85;;;19.20;56.80;;;;;;4934003;28;95189;-76
2022/05/06 05:14:43;;;;;;;69.38;52.65;;;19.30;56.70;;;;;;4939384;28;101431;-76
2022/05/06 05:17:09;;;;;;;73.45;52.72;;;19.30;56.40;;;;;;4938830;28;95958;-74
2022/05/06 05:19:35;;;;;;;66.55;52.38;;;19.40;56.20;;;;;;4946153;28;94906;-75
2022/05/06 05:22:01;;;;;;;67.75;53.30;;;19.50;56.80;;;;;;4939426;28;95133;-75
2022/05/06 05:24:27;;;;;;;67.30;52.95;;;19.50;56.10;;;;;;4939052;28;99672;-75
2022/05/06 05:26:54;;;;;;;67.28;53.20;;;19.60;55.80;;;;;;4937306;28;95907;-75
2022/05/06 05:29:20;;;;;;;85.60;55.33;;;19.60;55.90;;;;;;4941778;28;95378;-75
2022/05/06 05:31:45;;;;;;;97.18;56.72;;;19.70;56.10;;;;;;4941834;28;97107;-74
2022/05/06 05:34:11;;;;;;;81.20;56.55;;;19.70;55.90;;;;;;4929289;28;98918;-73
2022/05/06 05:36:37;;;;;;;86.32;57.70;;;19.70;55.40;;;;;;4928141;28;95703;-75
2022/05/06 05:39:03;;;;;;;86.35;57.08;;;19.70;55.90;;;;;;4937852;28;104404;-75
2022/05/06 05:41:28;;;;;;;85.03;56.55;;;19.70;56.00;;;;;;4923776;28;94728;-75
2022/05/06 05:49:22;;;;;;;84.30;54.88;;;19.90;55.80;;;;;;4940796;28;96768;-76
2022/05/06 05:51:48;;;;;;;77.60;54.97;;;19.90;55.50;;;;;;4948376;28;95368;-76
2022/05/06 05:54:15;;;;;;;79.55;55.15;;;19.90;55.20;;;;;;4935690;28;95996;-75
2022/05/06 05:56:41;;;;;;;73.43;54.30;;;19.90;55.00;;;;;;4930823;28;101234;-74
2022/05/06 05:59:07;;;;;;;73.38;54.55;;;20.00;55.60;;;;;;4937069;28;98138;-75
2022/05/06 06:01:32;;;;;;;77.22;54.25;;;20.10;55.20;;;;;;4932420;28;95654;-74
2022/05/06 06:03:58;;;;;;;75.45;54.53;;;20.20;55.00;;;;;;4941692;28;95719;-74
2022/05/06 06:06:24;;;;;;;76.63;54.80;;;20.30;54.90;;;;;;4932905;28;98039;-73
2022/05/06 06:08:50;;;;;;;79.40;54.65;;;20.30;55.00;;;;;;4933421;28;96475;-72
2022/05/06 06:11:17;;;;;;;82.05;54.78;;;20.40;55.40;;;;;;4935986;28;95958;-72
2022/05/06 06:13:43;;;;;;;75.13;54.20;;;20.40;55.50;;;;;;4937574;28;97880;-72
2022/05/06 06:16:08;;;;;;;76.70;54.10;;;20.50;55.50;;;;;;4932553;28;98270;-73
2022/05/06 06:18:34;;;;;;;74.30;54.63;;;20.50;55.40;;;;;;4936309;28;95104;-72
2022/05/06 06:21:00;;;;;;;74.70;54.55;;;20.50;55.50;;;;;;4946358;28;95298;-73
2022/05/06 06:23:26;;;;;;;72.13;54.30;;;20.60;55.40;;;;;;4945368;28;95177;-71
2022/05/06 06:25:51;;;;;;;77.13;54.67;;;20.60;55.10;;;;;;4945030;28;95496;-73
2022/05/06 06:28:17;;;;;;;75.82;54.95;;;20.60;55.10;;;;;;4949574;28;95881;-72
2022/05/06 06:30:43;;;;;;;75.10;55.63;;;20.60;54.90;;;;;;4941011;28;94434;-71
2022/05/06 06:33:08;;;;;;;352.38;95.30;;;20.50;54.80;;;;;;4943780;28;96386;-72
2022/05/06 06:35:34;;;;;;;296.65;86.22;;;20.60;54.80;;;;;;4935931;28;98593;-71
2022/05/06 06:38:00;;;;;;;267.05;82.75;;;20.60;54.70;;;;;;4939744;28;96164;-71
2022/05/06 06:40:26;;;;;;;244.23;86.90;;;20.60;54.70;;;;;;4931690;28;95065;-71
2022/05/06 06:42:52;;;;;;;233.05;84.57;;;20.60;54.60;;;;;;4944383;28;95651;-74
2022/05/06 06:45:18;;;;;;;214.38;79.07;;;20.60;54.60;;;;;;4933569;28;96454;-71
2022/05/06 06:47:44;;;;;;;206.85;78.07;;;20.50;54.50;;;;;;4935434;28;100528;-72
2022/05/06 06:50:10;;;;;;;191.27;77.35;;;20.60;54.50;;;;;;4930977;28;95254;-72
2022/05/06 06:52:36;;;;;;;174.02;74.20;;;20.50;54.50;;;;;;4937790;28;95242;-72
2022/05/06 06:55:02;;;;;;;166.25;73.47;;;20.50;54.80;;;;;;4944093;28;94873;-73
2022/05/06 06:57:30;;;;;;;151.20;75.03;;;20.50;54.80;;;;;;4939969;28;95523;-74
2022/05/06 06:59:56;;;;;;;164.02;72.43;;;20.50;54.80;;;;;;4939353;28;95200;-73
2022/05/06 07:02:21;;;;;;;139.10;69.65;;;20.50;54.80;;;;;;4946433;28;98838;-73
2022/05/06 07:04:47;;;;;;;144.98;69.60;;;20.40;54.80;;;;;;4938207;28;96450;-72
2022/05/06 07:12:42;;;;;;;128.70;68.30;;;20.50;54.60;;;;;;4935303;28;97435;-72
2022/05/06 07:15:08;;;;;;;132.57;69.15;;;20.50;54.60;;;;;;4943883;28;95356;-71
2022/05/06 07:17:34;;;;;;;123.85;68.00;;;20.50;54.60;;;;;;4932858;28;98242;-70
2022/05/06 07:20:00;;;;;;;116.53;68.32;;;20.50;54.80;;;;;;4944974;28;97750;-71
2022/05/06 07:22:27;;;;;;;126.07;67.82;;;20.50;54.70;;;;;;4938450;28;98764;-71
2022/05/06 07:24:52;;;;;;;178.63;77.43;;;20.50;54.70;;;;;;4931338;28;99468;-76
2022/05/06 07:27:18;;;;;;;121.88;66.70;;;20.50;55.10;;;;;;4936811;28;96347;-76
2022/05/06 07:29:44;;;;;;;116.82;67.72;;;20.50;55.70;;;;;;4935498;28;95515;-77
2022/05/06 07:32:11;;;;;;;115.38;66.70;;;20.50;55.90;;;;;;4942985;28;97553;-78
2022/05/06 07:34:37;;;;;;;114.82;66.80;;;20.50;55.70;;;;;;4948371;28;97146;-75
2022/05/06 07:37:03;;;;;;;113.97;65.45;;;20.50;55.30;;;;;;4926525;28;95571;-70
2022/05/06 07:39:28;;;;;;;111.35;66.25;;;20.50;55.10;;;;;;4919547;28;96251;-70
2022/05/06 07:41:54;;;;;;;111.82;64.50;;;20.50;54.80;;;;;;4927290;28;96098;-71
2022/05/06 07:44:19;;;;;;;108.28;65.97;;;20.50;54.80;;;;;;4941401;28;96175;-71
2022/05/06 07:46:45;;;;;;;107.43;65.13;;;20.60;55.20;;;;;;4943387;28;95119;-71
2022/05/06 07:49:11;;;;;;;100.32;63.63;;;20.50;55.30;;;;;;4946571;28;95271;-70
2022/05/06 07:51:37;;;;;;;102.60;63.85;;;20.50;55.40;;;;;;4936731;28;96706;-71
2022/05/06 07:54:03;;;;;;;99.40;64.43;;;20.50;55.30;;;;;;4942683;28;96310;-71
2022/05/06 07:56:29;;;;;;;97.90;64.03;;;20.50;55.30;;;;;;4942216;28;97333;-71
2022/05/06 07:58:56;;;;;;;106.97;64.72;;;20.50;55.50;;;;;;4941193;28;96077;-70
2022/05/06 08:06:51;;;;;;;93.18;63.83;;;20.40;55.80;;;;;;4924093;28;97185;-70
2022/05/06 08:09:17;;;;;;;96.50;63.83;;;20.40;55.90;;;;;;4930304;28;96184;-70
2022/05/06 08:11:43;;;;;;;95.10;63.13;;;20.40;55.90;;;;;;4940930;28;95120;-72
2022/05/06 08:14:08;;;;;;;93.13;63.20;;;20.40;55.80;;;;;;4944428;28;100003;-70
2022/05/06 08:16:34;;;;;;;96.85;62.88;;;20.40;56.00;;;;;;4938485;28;96063;-72
2022/05/06 08:19:00;;;;;;;94.07;63.03;;;20.40;56.00;;;;;;4938224;28;95761;-71
2022/05/06 08:21:25;;;;;;;91.05;63.28;;;20.40;56.40;;;;;;4945291;28;96105;-70
2022/05/06 08:23:52;;;;;;;92.90;63.30;;;20.30;56.10;;;;;;4947198;28;97079;-71
2022/05/06 08:26:18;;;;;;;97.80;62.85;;;20.30;55.90;;;;;;4946702;28;97103;-70
2022/05/06 08:28:44;;;;;;;98.95;63.00;;;20.40;56.10;;;;;;4942160;28;98106;-70
2022/05/06 08:31:10;;;;;;;99.90;62.63;;;20.40;55.80;;;;;;4940575;28;96607;-70
2022/05/06 08:33:36;;;;;;;93.35;62.60;;;20.40;55.90;;;;;;4943054;28;97721;-70
2022/05/06 08:36:04;;;;;;;94.40;61.45;;;20.40;56.10;;;;;;4929748;28;95857;-70
2022/05/06 08:38:30;;;;;;;96.68;61.65;;;20.40;56.00;;;;;;4927226;28;95571;-70
2022/05/06 08:40:57;;;;;;;89.93;61.47;;;20.30;56.30;;;;;;4928633;28;100470;-70
2022/05/06 08:43:22;;;;;;;100.88;61.65;;;20.40;56.60;;;;;;4939603;28;95579;-69
2022/05/06 08:51:25;;;;;;;89.68;60.65;;;20.40;56.80;;;;;;4933014;28;98721;-69
2022/05/06 08:53:51;;;;;;;92.15;60.35;;;20.40;56.60;;;;;;4943082;28;97076;-69
2022/05/06 08:56:16;;;;;;;94.82;60.75;;;20.40;56.60;;;;;;4938353;28;99424;-69
2022/05/06 08:58:42;;;;;;;89.63;59.72;;;20.40;56.90;;;;;;4943324;28;94652;-69
2022/05/06 09:01:10;;;;;;;85.72;60.03;;;20.50;56.70;;;;;;4944856;28;96540;-70
2022/05/06 09:03:40;;;;;;;87.20;60.00;;;20.50;56.40;;;;;;4946811;28;96426;-70
2022/05/06 09:06:20;;;;;;;93.72;60.28;;;20.50;56.70;;;;;;4929183;28;96469;-70
2022/05/06 09:08:47;;;;;;;91.53;59.45;;;20.50;57.10;;;;;;4935403;28;96129;-70
2022/05/06 09:11:13;;;;;;;93.65;59.95;;;20.50;57.30;;;;;;4932727;28;98287;-70
2022/05/06 09:13:49;;;;;;;89.13;59.55;;;20.50;57.30;;;;;;4946317;28;95055;-69
2022/05/06 09:16:42;;;;;;;87.22;59.08;;;20.50;57.30;;;;;;4943327;28;95281;-70
2022/05/06 09:19:11;;;;;;;87.60;59.45;;;20.50;56.90;;;;;;4947643;28;95127;-69
2022/05/06 09:21:39;;;;;;;91.00;60.25;;;20.50;57.10;;;;;;4946446;28;97427;-70
2022/05/06 09:24:18;;;;;;;87.15;59.35;;;20.50;57.30;;;;;;4947105;28;97217;-70
2022/05/06 09:27:09;;;;;;;89.70;59.58;;;20.50;57.10;;;;;;4943684;28;96721;-69
2022/05/06 09:29:41;;;;;;;84.68;60.15;;;20.50;57.10;;;;;;4949148;28;102489;-69
2022/05/06 09:32:14;;;;;;;84.07;59.33;;;20.60;57.40;;;;;;4947558;28;98391;-70
2022/05/06 09:34:41;;;;;;;80.53;59.25;;;20.60;57.40;;;;;;4947749;28;95981;-70
2022/05/06 09:37:07;;;;;;;82.88;59.17;;;20.60;57.20;;;;;;4937044;28;95388;-69
2022/05/06 09:39:32;;;;;;;80.82;58.55;;;20.60;56.90;;;;;;4936418;28;95747;-70
2022/05/06 09:42:04;;;;;;;78.65;58.58;;;20.70;56.90;;;;;;4945958;28;99809;-70
2022/05/06 09:44:29;;;;;;;79.18;58.58;;;20.80;57.10;;;;;;4946679;28;100221;-70
2022/05/06 09:47:12;;;;;;;81.15;59.42;;;20.80;56.80;;;;;;4950053;28;95419;-70
2022/05/06 09:49:42;;;;;;;83.32;58.95;;;20.90;56.60;;;;;;4952512;28;93952;-70
2022/05/06 09:52:15;;;;;;;79.35;57.90;;;21.00;56.50;;;;;;4936211;28;97464;-70
2022/05/06 09:54:41;;;;;;;88.25;58.90;;;21.00;56.40;;;;;;4934654;28;96247;-69
2022/05/06 09:57:09;;;;;;;84.07;58.30;;;21.10;56.40;;;;;;4925961;28;101291;-70
2022/05/06 09:59:35;;;;;;;85.60;58.22;;;21.20;56.30;;;;;;4934693;28;96688;-70
2022/05/06 10:02:01;;;;;;;82.68;57.55;;;21.20;56.00;;;;;;4952421;28;98352;-70
2022/05/06 10:04:27;;;;;;;80.15;57.05;;;21.30;55.90;;;;;;4945334;28;95062;-70
2022/05/06 10:07:00;;;;;;;79.10;56.85;;;21.30;55.70;;;;;;4935567;28;94903;-70
2022/05/06 10:09:29;;;;;;;79.75;57.50;;;21.30;55.50;;;;;;4936680;28;96070;-71
2022/05/06 10:11:58;;;;;;;81.85;57.38;;;21.40;55.60;;;;;;4945663;28;95360;-70
2022/05/06 10:14:24;;;;;;;76.93;56.88;;;21.50;55.70;;;;;;4943801;28;94807;-70
2022/05/06 10:16:50;;;;;;;81.35;57.13;;;21.50;55.40;;;;;;4966303;28;95284;-71
2022/05/06 10:19:45;;;;;;;78.63;57.28;;;21.50;56.30;;;;;;4949398;28;98597;-70
2022/05/06 10:22:10;;;;;;;80.40;56.90;;;21.50;55.70;;;;;;4951423;28;97149;-71
2022/05/06 10:24:52;;;;;;;78.22;57.17;;;21.60;55.80;;;;;;4937823;28;96025;-73
2022/05/06 10:33:17;;;;;;;78.15;56.38;;;21.60;55.90;;;;;;4952917;28;95310;-70
2022/05/06 10:35:47;;;;;;;77.45;56.45;;;21.70;55.80;;;;;;4949350;28;95540;-70
2022/05/06 10:38:25;;;;;;;80.22;55.90;;;21.70;55.90;;;;;;4928758;28;95474;-70
2022/05/06 10:40:57;;;;;;;78.70;56.22;;;21.70;55.80;;;;;;4951931;28;95764;-71
2022/05/06 10:43:41;;;;;;;80.15;56.38;;;21.80;56.00;;;;;;4939843;28;96448;-70
2022/05/06 10:46:07;;;;;;;76.05;55.63;;;21.80;56.00;;;;;;4948436;28;95472;-71
2022/05/06 10:48:33;;;;;;;80.95;56.08;;;21.80;56.00;;;;;;4937107;28;98554;-70
2022/05/06 10:51:22;;;;;;;78.72;55.63;;;21.80;56.00;;;;;;4949931;28;98495;-71
2022/05/06 10:53:48;;;;;;;75.32;55.47;;;21.80;56.60;;;;;;4948279;28;97257;-70
2022/05/06 10:56:14;;;;;;;81.53;56.15;;;21.90;56.70;;;;;;4933100;28;98051;-69
2022/05/06 10:58:41;;;;;;;80.78;56.58;;;21.80;56.60;;;;;;4942949;28;98169;-69
2022/05/06 11:01:13;;;;;;;80.03;56.20;;;21.90;56.70;;;;;;4947627;28;95111;-69
2022/05/06 11:03:53;;;;;;;77.18;55.22;;;21.90;57.00;;;;;;4936796;28;94718;-69
2022/05/06 11:06:22;;;;;;;79.55;55.40;;;21.90;57.00;;;;;;4944222;28;99518;-68
2022/05/06 11:08:48;;;;;;;78.38;55.35;;;21.90;57.30;;;;;;4934193;28;95995;-69
2022/05/06 11:11:18;;;;;;;80.22;55.35;;;21.90;57.30;;;;;;4943181;28;97802;-69
2022/05/06 11:13:52;;;;;;;79.50;55.95;;;21.90;57.60;;;;;;4947159;28;98800;-69
2022/05/06 11:16:20;;;;;;;79.07;54.90;;;21.90;58.60;;;;;;4949827;28;98558;-69
2022/05/06 11:18:47;;;;;;;77.00;55.20;;;22.00;59.30;;;;;;4936553;28;97854;-69
2022/05/06 11:21:22;;;;;;;75.28;54.90;;;21.90;59.30;;;;;;4942301;28;95184;-68
2022/05/06 11:23:48;;;;;;;76.97;55.30;;;22.00;60.20;;;;;;4933079;28;98551;-69
2022/05/06 11:26:24;;;;;;;77.10;55.28;;;21.90;59.50;;;;;;4937273;28;95011;-69
2022/05/06 11:29:03;;;;;;;75.35;54.95;;;21.90;58.90;;;;;;4949838;28;95187;-69
2022/05/06 11:31:29;;;;;;;77.00;55.13;;;21.90;58.60;;;;;;4948905;28;94983;-69
2022/05/06 11:34:01;;;;;;;80.80;54.67;;;21.90;58.30;;;;;;4947703;28;95271;-69
2022/05/06 11:36:26;;;;;;;73.55;54.78;;;21.80;56.60;;;;;;4946417;28;99606;-69
2022/05/06 11:38:52;;;;;;;76.47;54.60;;;21.80;58.20;;;;;;4940548;28;96953;-69
2022/05/06 11:41:18;;;;;;;75.72;54.58;;;21.80;58.00;;;;;;4937653;28;99536;-69
2022/05/06 11:43:45;;;;;;;74.95;54.50;;;21.80;58.20;;;;;;4949479;28;95686;-69
2022/05/06 11:49:03;;;;;;;76.07;54.13;;;21.70;57.80;;;;;;4948492;28;95086;-69
2022/05/06 11:51:42;;;;;;;73.50;54.72;;;21.70;57.50;;;;;;4949060;28;95191;-69
2022/05/06 11:54:09;;;;;;;72.10;54.22;;;21.70;57.60;;;;;;4945014;28;98135;-69
2022/05/06 11:56:36;;;;;;;72.50;54.17;;;21.70;57.50;;;;;;4946288;28;95357;-69
2022/05/06 11:59:03;;;;;;;73.60;53.97;;;21.70;57.10;;;;;;4937681;28;95124;-69
2022/05/06 12:01:33;;;;;;;74.07;54.17;;;21.70;57.40;;;;;;4934938;28;95428;-69
2022/05/06 12:04:03;;;;;;;72.23;53.70;;;21.70;57.90;;;;;;4935637;28;96474;-70
2022/05/06 12:06:28;;;;;;;74.40;54.35;;;21.70;57.10;;;;;;4930863;28;96341;-69
2022/05/06 12:09:14;;;;;;;70.72;53.28;;;21.70;57.10;;;;;;4928377;28;100036;-69
2022/05/06 12:11:41;;;;;;;73.15;53.58;;;21.70;57.00;;;;;;4928450;28;99938;-71
2022/05/06 12:14:13;;;;;;;76.45;53.65;;;21.70;56.80;;;;;;4936129;28;95713;-68
2022/05/06 12:16:56;;;;;;;72.20;53.50;;;21.70;57.40;;;;;;4941528;28;95613;-69
2022/05/06 12:19:36;;;;;;;72.40;53.60;;;21.80;57.50;;;;;;4930330;28;96931;-69
2022/05/06 12:22:06;;;;;;;72.75;53.80;;;21.70;57.30;;;;;;4948326;28;94746;-69
2022/05/06 12:24:41;;;;;;;72.57;53.47;;;21.70;57.30;;;;;;4940507;28;97111;-68
2022/05/06 12:27:08;;;;;;;73.38;53.72;;;21.70;57.90;;;;;;4945484;28;95639;-69
2022/05/06 12:29:38;;;;;;;72.53;53.67;;;21.70;57.60;;;;;;4937061;28;96405;-69
2022/05/06 12:32:05;;;;;;;75.70;53.63;;;21.70;57.50;;;;;;4944157;28;95415;-69
2022/05/06 12:34:31;;;;;;;71.80;53.50;;;21.70;57.50;;;;;;4937623;28;95529;-68
2022/05/06 12:37:18;;;;;;;71.35;53.58;;;21.70;57.40;;;;;;4930163;28;95011;-68
2022/05/06 12:39:48;;;;;;;73.28;53.63;;;21.70;57.30;;;;;;4927682;28;98774;-69
2022/05/06 12:42:18;;;;;;;71.28;52.90;;;21.70;57.30;;;;;;4939264;28;95558;-69
2022/05/06 12:44:45;;;;;;;73.13;53.43;;;21.70;57.30;;;;;;4941000;28;98452;-70
2022/05/06 12:47:12;;;;;;;73.30;53.45;;;21.60;57.10;;;;;;4931549;28;100787;-68
2022/05/06 12:49:40;;;;;;;71.80;53.10;;;21.60;57.10;;;;;;4935119;28;96573;-68
2022/05/06 12:52:10;;;;;;;71.72;53.30;;;21.70;57.10;;;;;;4933221;28;96373;-70
2022/05/06 12:54:37;;;;;;;72.18;53.40;;;21.60;57.00;;;;;;4931632;28;97044;-69
2022/05/06 12:57:04;;;;;;;71.82;53.53;;;21.60;56.90;;;;;;4926696;28;98438;-70
2022/05/06 12:59:30;;;;;;;72.75;53.10;;;21.60;56.90;;;;;;4937205;28;95585;-69
2022/05/06 13:01:56;;;;;;;71.78;53.58;;;21.60;56.80;;;;;;4931306;28;95733;-69
2022/05/06 13:04:21;;;;;;;72.53;53.63;;;21.60;56.90;;;;;;4939489;28;95670;-69
2022/05/06 13:06:47;;;;;;;71.43;53.17;;;21.60;56.90;;;;;;4926547;28;95223;-69
2022/05/06 13:09:13;;;;;;;72.10;53.10;;;21.60;56.80;;;;;;4932806;28;95725;-68
2022/05/06 13:11:39;;;;;;;72.05;53.78;;;21.60;56.80;;;;;;4942602;28;94954;-69